createdAt,value
2022-08-05T00:00:16.156Z,24.72
2022-08-05T00:02:51.148Z,24.53
2022-08-05T00:06:02.985Z,24.13
2022-08-05T00:08:34.642Z,24.23
2022-08-05T00:11:00.506Z,24.43
2022-08-05T00:13:38.906Z,25.25
2022-08-05T00:16:13.026Z,24.69
2022-08-05T00:18:44.283Z,24.69
2022-08-05T00:21:12.431Z,25.39
2022-08-05T00:23:46.408Z,24.91
2022-08-05T00:26:21.939Z,24.29
2022-08-05T00:28:49.674Z,24.71
2022-08-05T00:31:53.297Z,24.65
2022-08-05T00:34:56.059Z,24.70
2022-08-05T00:37:12.593Z,24.71
2022-08-05T00:39:57.158Z,24.86
2022-08-05T00:42:35.387Z,24.53
2022-08-05T00:45:05.263Z,24.52
2022-08-05T00:47:57.103Z,24.22
2022-08-05T00:50:25.258Z,24.14
2022-08-05T00:52:55.324Z,24.62
2022-08-05T00:55:23.165Z,24.29
2022-08-05T00:58:01.848Z,25.11
2022-08-05T01:00:32.271Z,25.07
2022-08-05T01:03:01.113Z,24.47
2022-08-05T01:05:35.204Z,24.60
2022-08-05T01:08:39.169Z,24.77
2022-08-05T01:10:52.551Z,25.03
2022-08-05T01:13:59.026Z,24.59
2022-08-05T01:16:45.567Z,24.74
2022-08-05T01:19:56.862Z,24.63
2022-08-05T01:22:27.960Z,24.34
2022-08-05T01:24:58.599Z,24.79
2022-08-05T01:27:26.086Z,24.69
2022-08-05T01:29:56.298Z,24.46
2022-08-05T01:32:27.614Z,25.10
2022-08-05T01:34:57.720Z,24.50
2022-08-05T01:37:31.765Z,24.68
2022-08-05T01:40:05.449Z,24.89
2022-08-05T01:42:34.809Z,24.64
2022-08-05T01:45:03.232Z,24.46
2022-08-05T01:47:39.452Z,24.52
2022-08-05T01:50:15.345Z,24.99
2022-08-05T01:52:44.260Z,24.73
2022-08-05T01:55:13.087Z,24.72
2022-08-05T01:58:09.943Z,24.50
2022-08-05T02:00:31.745Z,24.86
2022-08-05T02:03:03.896Z,24.73
2022-08-05T02:05:34.276Z,24.83
2022-08-05T02:08:04.009Z,24.60
2022-08-05T02:10:35.313Z,24.38
2022-08-05T02:13:15.820Z,24.77
2022-08-05T02:16:06.711Z,24.97
2022-08-05T02:18:52.781Z,24.62
2022-08-05T02:21:25.201Z,25.21
2022-08-05T02:23:55.071Z,25.04
2022-08-05T02:26:26.491Z,25.16
2022-08-05T02:28:56.073Z,25.15
2022-08-05T02:31:34.641Z,24.70
2022-08-05T02:34:09.360Z,24.84
2022-08-05T02:36:42.421Z,25.17
2022-08-05T02:39:10.481Z,25.06
2022-08-05T02:41:57.797Z,24.78
2022-08-05T02:44:27.401Z,25.54
2022-08-05T02:47:00.244Z,25.64
2022-08-05T02:49:36.740Z,25.70
2022-08-05T02:52:29.303Z,25.56
2022-08-05T02:54:58.872Z,25.60
2022-08-05T02:58:11.605Z,25.05
2022-08-05T03:00:18.089Z,25.56
2022-08-05T03:02:47.078Z,25.12
2022-08-05T03:05:15.623Z,25.61
2022-08-05T03:08:01.753Z,25.64
2022-08-05T03:10:30.904Z,25.48
2022-08-05T03:15:24.647Z,25.46
2022-08-05T03:17:54.125Z,25.37
2022-08-05T03:20:24.533Z,25.57
2022-08-05T03:22:52.749Z,25.73
2022-08-05T03:25:32.956Z,25.66
2022-08-05T03:28:10.727Z,25.87
2022-08-05T03:30:42.618Z,25.58
2022-08-05T03:33:10.192Z,25.91
2022-08-05T03:35:41.060Z,25.96
2022-08-05T03:38:12.664Z,26.45
2022-08-05T03:40:45.343Z,26.50
2022-08-05T03:43:58.617Z,26.17
2022-08-05T03:46:02.717Z,26.09
2022-08-05T03:48:30.562Z,26.05
2022-08-05T03:52:50.492Z,26.34
2022-08-05T03:55:50.441Z,26.90
2022-08-05T03:56:43.107Z,26.48
2022-08-05T03:59:16.736Z,26.40
2022-08-05T04:01:49.848Z,26.22
2022-08-05T04:04:21.340Z,26.24
2022-08-05T04:06:51.126Z,26.43
2022-08-05T04:09:20.308Z,26.73
2022-08-05T04:11:52.395Z,26.94
2022-08-05T04:14:29.962Z,26.73
2022-08-05T04:16:59.755Z,27.82
2022-08-05T04:19:28.055Z,27.84
2022-08-05T04:22:08.179Z,27.97
2022-08-05T04:24:38.426Z,27.91
2022-08-05T04:27:15.337Z,28.07
2022-08-05T04:29:42.837Z,27.97
2022-08-05T04:32:10.117Z,27.83
2022-08-05T04:34:42.621Z,27.63
2022-08-05T04:37:11.014Z,28.09
2022-08-05T04:39:39.217Z,28.35
2022-08-05T04:42:07.723Z,28.06
2022-08-05T04:44:36.359Z,27.81
2022-08-05T04:47:09.688Z,27.60
2022-08-05T04:50:01.802Z,27.27
2022-08-05T04:52:27.635Z,27.15
2022-08-05T04:54:56.930Z,26.94
2022-08-05T04:57:28.612Z,26.97
2022-08-05T04:59:58.564Z,27.06
2022-08-05T05:02:36.621Z,26.88
2022-08-05T05:05:26.388Z,26.82
2022-08-05T05:08:26.671Z,27.15
2022-08-05T05:10:57.819Z,27.18
2022-08-05T05:13:25.077Z,26.56
2022-08-05T05:15:57.695Z,27.25
2022-08-05T05:18:33.952Z,26.39
2022-08-05T05:21:02.332Z,26.59
2022-08-05T05:23:39.485Z,26.82
2022-08-05T05:26:18.024Z,25.94
2022-08-05T05:28:45.457Z,26.36
2022-08-05T05:31:12.950Z,26.36
2022-08-05T05:33:59.437Z,25.84
2022-08-05T05:36:28.788Z,25.78
2022-08-05T05:38:57.679Z,25.94
2022-08-05T05:41:25.021Z,26.05
2022-08-05T05:44:37.766Z,26.41
2022-08-05T05:46:55.148Z,25.73
2022-08-05T05:49:26.321Z,25.93
2022-08-05T05:51:54.446Z,26.27
2022-08-05T05:54:22.388Z,25.89
2022-08-05T05:57:13.497Z,26.03
2022-08-05T05:59:41.293Z,25.75
2022-08-05T06:02:10.763Z,25.91
2022-08-05T06:04:38.043Z,26.11
2022-08-05T06:07:05.433Z,25.69
2022-08-05T06:10:00.124Z,26.08
2022-08-05T06:12:20.162Z,25.91
2022-08-05T06:14:47.465Z,25.96
2022-08-05T06:17:32.024Z,26.20
2022-08-05T06:20:09.675Z,25.69
2022-08-05T06:22:48.998Z,25.19
2022-08-05T06:25:25.288Z,26.03
2022-08-05T06:28:11.848Z,25.23
2022-08-05T06:30:48.209Z,25.14
2022-08-05T06:33:19.358Z,25.64
2022-08-05T06:36:07.137Z,25.20
2022-08-05T06:38:35.867Z,25.43
2022-08-05T06:41:05.517Z,25.66
2022-08-05T06:43:51.437Z,25.90
2022-08-05T06:46:29.832Z,25.27
2022-08-05T06:48:59.484Z,25.92
2022-08-05T06:51:29.817Z,25.64
2022-08-05T06:54:02.603Z,25.83
2022-08-05T06:56:34.148Z,25.68
2022-08-05T06:59:09.332Z,26.03
2022-08-05T07:01:41.512Z,26.29
2022-08-05T07:04:09.717Z,25.80
2022-08-05T07:06:37.238Z,26.50
2022-08-05T07:09:04.893Z,26.26
2022-08-05T07:11:36.808Z,26.39
2022-08-05T07:14:29.584Z,24.68
2022-08-05T07:18:07.025Z,25.34
2022-08-05T07:22:38.102Z,25.80
2022-08-05T07:25:23.870Z,26.27
2022-08-05T07:27:58.719Z,26.38
2022-08-05T07:30:32.518Z,25.76
2022-08-05T07:33:01.758Z,26.13
2022-08-05T07:36:04.716Z,25.50
2022-08-05T07:38:26.438Z,25.96
2022-08-05T07:42:06.863Z,26.17
2022-08-05T07:44:02.951Z,26.17
2022-08-05T07:46:33.658Z,25.78
2022-08-05T07:49:05.793Z,25.62
2022-08-05T07:51:40.997Z,25.06
2022-08-05T07:54:26.631Z,25.99
2022-08-05T07:57:02.527Z,25.98
2022-08-05T07:59:46.939Z,24.92
2022-08-05T08:02:17.838Z,24.74
2022-08-05T08:04:46.474Z,25.99
2022-08-05T08:07:13.912Z,25.50
2022-08-05T08:09:42.773Z,25.29
2022-08-05T08:12:29.646Z,26.07
2022-08-05T08:15:02.715Z,26.46
2022-08-05T08:17:31.659Z,26.71
2022-08-05T08:20:42.878Z,27.22
2022-08-05T08:22:57.192Z,26.59
2022-08-05T08:25:26.822Z,25.10
2022-08-05T08:28:18.661Z,26.68
2022-08-05T08:30:59.767Z,25.53
2022-08-05T08:33:28.315Z,26.71
2022-08-05T08:36:29.788Z,26.72
2022-08-05T08:38:42.967Z,24.89
2022-08-05T08:41:21.600Z,23.68
2022-08-05T08:45:17.053Z,25.94
2022-08-05T08:46:44.015Z,25.17
2022-08-05T08:50:23.166Z,24.48
2022-08-05T08:52:16.949Z,26.12
2022-08-05T08:54:44.808Z,26.56
2022-08-05T08:57:13.567Z,26.76
2022-08-05T08:59:41.876Z,27.40
2022-08-05T09:02:16.706Z,26.70
2022-08-05T09:04:58.301Z,27.51
2022-08-05T09:07:39.928Z,27.26
2022-08-05T09:10:19.585Z,28.15
2022-08-05T09:12:51.124Z,25.71
2022-08-05T09:15:20.661Z,24.45
2022-08-05T09:17:50.962Z,24.99
2022-08-05T09:20:21.053Z,25.43
2022-08-05T09:23:18.677Z,24.43
2022-08-05T09:26:00.970Z,25.44
2022-08-05T09:28:33.607Z,28.04
2022-08-05T09:32:35.962Z,27.77
2022-08-05T09:33:58.736Z,26.77
2022-08-05T09:36:54.569Z,26.46
2022-08-05T09:39:41.518Z,28.04
2022-08-05T09:42:17.625Z,25.53
2022-08-05T09:44:52.030Z,25.09
2022-08-05T09:47:23.342Z,25.31
2022-08-05T09:50:00.359Z,27.00
2022-08-05T09:52:33.619Z,25.97
2022-08-05T09:55:55.052Z,25.71
2022-08-05T09:57:54.776Z,25.50
2022-08-05T10:00:27.778Z,25.10
2022-08-05T10:02:59.024Z,25.42
2022-08-05T10:05:28.053Z,26.28
2022-08-05T10:08:36.707Z,25.38
2022-08-05T10:10:44.317Z,27.70
2022-08-05T10:13:12.605Z,27.89
2022-08-05T10:15:43.978Z,26.81
2022-08-05T10:18:12.964Z,25.50
2022-08-05T10:20:40.185Z,25.68
2022-08-05T10:23:08.772Z,26.53
2022-08-05T10:25:49.892Z,25.81
2022-08-05T10:28:19.660Z,25.58
2022-08-05T10:32:48.445Z,26.50
2022-08-05T10:33:45.137Z,26.07
2022-08-05T10:36:25.774Z,25.74
2022-08-05T10:38:59.356Z,25.83
2022-08-05T10:41:46.458Z,25.60
2022-08-05T10:44:18.327Z,25.59
2022-08-05T10:46:45.648Z,25.52
2022-08-05T10:49:16.430Z,25.78
2022-08-05T10:52:00.155Z,26.03
2022-08-05T10:54:56.213Z,25.68
2022-08-05T10:57:31.820Z,25.94
2022-08-05T11:00:22.627Z,26.54
2022-08-05T11:03:23.193Z,27.49
2022-08-05T11:06:04.105Z,27.21
2022-08-05T11:08:38.003Z,26.90
2022-08-05T11:11:41.951Z,26.73
2022-08-05T11:14:13.264Z,27.02
2022-08-05T11:16:56.103Z,26.89
2022-08-05T11:20:10.721Z,26.38
2022-08-05T11:22:33.096Z,26.63
2022-08-05T11:26:05.371Z,27.20
2022-08-05T11:28:35.974Z,26.78
2022-08-05T11:31:06.569Z,26.49
2022-08-05T11:33:43.894Z,27.05
2022-08-05T11:36:15.160Z,27.56
2022-08-05T11:39:01.533Z,26.87
2022-08-05T11:41:54.751Z,27.35
2022-08-05T11:44:40.248Z,28.02
2022-08-05T11:47:11.998Z,27.72
2022-08-05T11:49:49.751Z,27.76
2022-08-05T11:52:29.270Z,27.29
2022-08-05T11:54:58.675Z,27.39
2022-08-05T11:58:08.156Z,27.82
2022-08-05T12:00:25.656Z,27.20
2022-08-05T12:02:56.601Z,27.96
2022-08-05T12:05:32.316Z,27.80
2022-08-05T12:08:11.415Z,28.13
2022-08-05T12:10:45.113Z,28.21
2022-08-05T12:13:16.955Z,27.78
2022-08-05T12:15:49.729Z,28.30
2022-08-05T12:18:18.503Z,28.06
2022-08-05T12:20:47.973Z,28.06
2022-08-05T12:23:16.715Z,28.34
2022-08-05T12:25:56.803Z,27.93
2022-08-05T12:28:34.717Z,27.71
2022-08-05T12:31:04.745Z,27.70
2022-08-05T12:33:36.313Z,27.80
2022-08-05T12:36:08.015Z,27.86
2022-08-05T12:38:40.107Z,27.92
2022-08-05T12:41:13.387Z,27.28
2022-08-05T12:43:57.574Z,27.11
2022-08-05T12:46:29.093Z,27.42
2022-08-05T12:49:13.464Z,27.31
2022-08-05T12:52:14.199Z,27.27
2022-08-05T12:54:33.115Z,27.27
2022-08-05T12:57:04.685Z,27.82
2022-08-05T12:59:46.706Z,27.70
2022-08-05T13:02:36.067Z,27.43
2022-08-05T13:05:06.223Z,27.64
2022-08-05T13:07:59.804Z,27.34
2022-08-05T13:10:23.911Z,27.04
2022-08-05T13:12:58.061Z,27.29
2022-08-05T13:15:41.957Z,27.79
2022-08-05T13:18:21.388Z,27.97
2022-08-05T13:20:51.760Z,27.65
2022-08-05T13:23:22.536Z,27.54
2022-08-05T13:25:59.664Z,26.94
2022-08-05T13:28:28.990Z,27.54
2022-08-05T13:30:57.196Z,27.60
2022-08-05T13:34:21.751Z,27.01
2022-08-05T13:36:14.604Z,26.78
2022-08-05T13:38:43.070Z,27.12
2022-08-05T13:41:11.752Z,27.99
2022-08-05T13:43:45.341Z,25.73
2022-08-05T13:46:50.642Z,26.74
2022-08-05T13:49:13.707Z,27.38
2022-08-05T13:51:46.578Z,27.22
2022-08-05T13:54:16.136Z,26.72
2022-08-05T13:56:45.028Z,26.88
2022-08-05T13:59:20.397Z,26.93
2022-08-05T14:01:56.652Z,27.16
2022-08-05T14:04:54.823Z,28.83
2022-08-05T14:07:56.428Z,27.75
2022-08-05T14:10:13.047Z,27.36
2022-08-05T14:12:42.714Z,27.49
2022-08-05T14:16:06.928Z,27.11
2022-08-05T14:17:59.783Z,27.77
2022-08-05T14:20:29.734Z,27.08
2022-08-05T14:23:00.363Z,28.24
2022-08-05T14:25:30.181Z,27.67
2022-08-05T14:27:58.386Z,28.62
2022-08-05T14:30:28.113Z,28.59
2022-08-05T14:32:56.709Z,29.39
2022-08-05T14:35:50.099Z,28.70
2022-08-05T14:38:31.883Z,29.13
2022-08-05T14:41:01.164Z,27.78
2022-08-05T14:43:59.606Z,28.24
2022-08-05T14:46:15.744Z,27.39
2022-08-05T14:48:43.546Z,28.00
2022-08-05T14:51:17.586Z,28.04
2022-08-05T14:53:45.655Z,30.05
2022-08-05T14:56:33.177Z,29.92
2022-08-05T14:59:01.546Z,30.32
2022-08-05T15:01:48.251Z,30.60
2022-08-05T15:04:20.620Z,28.97
2022-08-05T15:06:52.327Z,27.57
2022-08-05T15:09:51.115Z,27.51
2022-08-05T15:12:09.516Z,29.72
2022-08-05T15:14:48.402Z,30.41
2022-08-05T15:17:46.405Z,29.41
2022-08-05T15:20:07.568Z,29.87
2022-08-05T15:22:37.344Z,28.72
2022-08-05T15:25:11.511Z,29.02
2022-08-05T15:27:42.989Z,28.79
2022-08-05T15:30:19.531Z,29.26
2022-08-05T15:32:47.293Z,29.94
2022-08-05T15:35:14.935Z,29.65
2022-08-05T15:38:32.905Z,30.39
2022-08-05T15:41:04.617Z,29.60
2022-08-05T15:43:20.570Z,28.32
2022-08-05T15:46:00.525Z,28.22
2022-08-05T15:48:29.022Z,27.68
2022-08-05T15:50:56.598Z,28.86
2022-08-05T15:53:26.462Z,28.12
2022-08-05T15:56:02.961Z,28.69
2022-08-05T15:58:36.851Z,29.20
2022-08-05T16:01:16.985Z,29.52
2022-08-05T16:03:48.519Z,28.64
2022-08-05T16:06:20.291Z,27.90
2022-08-05T16:08:50.278Z,29.00
2022-08-05T16:11:21.103Z,28.02
2022-08-05T16:14:06.264Z,29.21
2022-08-05T16:16:35.270Z,28.69
2022-08-05T16:19:03.409Z,28.36
2022-08-05T16:21:58.260Z,29.08
2022-08-05T16:24:39.777Z,27.57
2022-08-05T16:27:07.375Z,26.53
2022-08-05T16:29:37.466Z,27.18
2022-08-05T16:32:06.656Z,27.88
2022-08-05T16:34:39.381Z,27.55
2022-08-05T16:38:03.553Z,27.73
2022-08-05T16:40:07.382Z,27.15
2022-08-05T16:42:41.220Z,26.65
2022-08-05T16:46:03.825Z,27.20
2022-08-05T16:47:58.599Z,26.43
2022-08-05T16:50:29.832Z,27.19
2022-08-05T16:52:58.882Z,26.68
2022-08-05T16:55:47.184Z,26.56
2022-08-05T16:58:14.839Z,26.39
2022-08-05T17:00:49.454Z,27.37
2022-08-05T17:03:20.078Z,26.89
2022-08-05T17:05:53.966Z,25.81
2022-08-05T17:08:36.321Z,26.27
2022-08-05T17:11:17.059Z,26.22
2022-08-05T17:13:45.533Z,26.52
2022-08-05T17:16:30.168Z,25.87
2022-08-05T17:19:00.762Z,25.49
2022-08-05T17:21:35.341Z,26.17
2022-08-05T17:24:19.648Z,26.39
2022-08-05T17:26:52.456Z,25.81
2022-08-05T17:29:22.828Z,26.59
2022-08-05T17:32:01.453Z,26.66
2022-08-05T17:34:30.190Z,26.65
2022-08-05T17:37:00.131Z,26.51
2022-08-05T17:39:33.582Z,27.02
2022-08-05T17:42:17.603Z,26.69
2022-08-05T17:44:51.076Z,25.89
2022-08-05T17:47:22.056Z,26.07
2022-08-05T17:49:59.756Z,25.37
2022-08-05T17:52:32.478Z,25.47
2022-08-05T17:55:00.526Z,25.75
2022-08-05T17:57:28.430Z,25.37
2022-08-05T18:00:03.148Z,25.55
2022-08-05T18:02:32.387Z,25.74
2022-08-05T18:05:03.690Z,25.40
2022-08-05T18:07:41.477Z,25.00
2022-08-05T18:10:11.135Z,25.63
2022-08-05T18:12:39.196Z,25.09
2022-08-05T18:15:06.737Z,25.05
2022-08-05T18:18:01.655Z,25.18
2022-08-05T18:20:29.534Z,25.01
2022-08-05T18:23:24.346Z,24.96
2022-08-05T18:25:59.487Z,25.58
2022-08-05T18:28:28.220Z,25.15
2022-08-05T18:30:55.859Z,25.27
2022-08-05T18:33:24.081Z,26.36
2022-08-05T18:36:04.075Z,26.12
2022-08-05T18:38:35.844Z,25.53
2022-08-05T18:41:55.477Z,25.87
2022-08-05T18:43:54.835Z,25.45
2022-08-05T18:46:26.018Z,25.99
2022-08-05T18:48:56.363Z,25.67
2022-08-05T18:52:03.353Z,26.33
2022-08-05T18:54:31.915Z,26.13
2022-08-05T18:57:01.029Z,25.08
2022-08-05T18:59:43.864Z,26.25
2022-08-05T19:02:26.694Z,25.82
2022-08-05T19:06:05.474Z,25.58
2022-08-05T19:07:55.335Z,25.54
2022-08-05T19:10:28.064Z,25.68
2022-08-05T19:12:56.696Z,25.76
2022-08-05T19:15:25.265Z,25.57
2022-08-05T19:18:20.591Z,25.92
2022-08-05T19:20:49.035Z,26.18
2022-08-05T19:24:06.052Z,25.94
2022-08-05T19:26:04.485Z,26.22
2022-08-05T19:28:37.771Z,26.96
2022-08-05T19:31:09.428Z,27.47
2022-08-05T19:33:48.339Z,27.94
2022-08-05T19:36:25.032Z,28.54
2022-08-05T19:38:54.204Z,28.40
2022-08-05T19:41:22.038Z,28.55
2022-08-05T19:44:13.579Z,28.23
2022-08-05T19:46:43.714Z,28.93
2022-08-05T19:49:12.478Z,29.14
2022-08-05T19:52:19.655Z,29.12
2022-08-05T19:54:34.138Z,28.91
2022-08-05T19:57:06.682Z,29.12
2022-08-05T19:59:55.577Z,29.06
2022-08-05T20:02:31.519Z,28.93
2022-08-05T20:04:59.809Z,29.36
2022-08-05T20:07:46.591Z,29.21
2022-08-05T20:10:19.128Z,29.53
2022-08-05T20:12:49.206Z,29.45
2022-08-05T20:15:22.788Z,29.71
2022-08-05T20:18:10.238Z,29.74
2022-08-05T20:20:56.706Z,29.31
2022-08-05T20:23:40.432Z,29.47
2022-08-05T20:26:16.203Z,29.64
2022-08-05T20:28:50.488Z,30.07
2022-08-05T20:31:21.830Z,30.81
2022-08-05T20:33:51.027Z,30.60
2022-08-05T20:36:18.506Z,30.02
2022-08-05T20:38:53.366Z,30.30
2022-08-05T20:41:23.883Z,29.90
2022-08-05T20:43:58.762Z,29.46
2022-08-05T20:46:28.957Z,30.09
2022-08-05T20:48:56.360Z,29.75
2022-08-05T20:51:23.885Z,29.82
2022-08-05T20:53:56.486Z,29.30
2022-08-05T20:56:28.924Z,29.55
2022-08-05T20:59:00.125Z,28.95
2022-08-05T21:01:39.153Z,29.48
2022-08-05T21:04:10.633Z,28.61
2022-08-05T21:06:45.903Z,29.23
2022-08-05T21:09:14.881Z,28.94
2022-08-05T21:12:08.944Z,28.44
2022-08-05T21:14:34.706Z,28.41
2022-08-05T21:17:05.058Z,28.83
2022-08-05T21:19:47.288Z,28.51
2022-08-05T21:22:18.526Z,28.75
2022-08-05T21:24:51.853Z,28.28
2022-08-05T21:27:25.531Z,27.80
2022-08-05T21:29:56.110Z,28.52
2022-08-05T21:32:27.140Z,27.81
2022-08-05T21:35:17.660Z,27.78
2022-08-05T21:37:47.373Z,27.79
2022-08-05T21:40:22.404Z,28.74
2022-08-05T21:42:52.090Z,27.86
2022-08-05T21:45:25.027Z,27.69
2022-08-05T21:47:57.025Z,27.85
2022-08-05T21:50:26.029Z,27.74
2022-08-05T21:52:53.549Z,28.10
2022-08-05T21:56:01.540Z,28.04
2022-08-05T21:58:10.299Z,28.33
2022-08-05T22:00:40.154Z,27.83
2022-08-05T22:03:09.920Z,28.43
2022-08-05T22:05:48.805Z,28.38
2022-08-05T22:08:22.230Z,27.63
2022-08-05T22:10:53.255Z,27.65
2022-08-05T22:14:19.710Z,27.72
2022-08-05T22:16:32.242Z,27.07
2022-08-05T22:18:58.600Z,27.84
2022-08-05T22:21:26.200Z,27.80
2022-08-05T22:24:39.415Z,27.57
2022-08-05T22:27:17.975Z,27.66
2022-08-05T22:29:46.010Z,28.33
2022-08-05T22:32:17.545Z,27.67
2022-08-05T22:34:45.693Z,27.54
2022-08-05T22:37:13.229Z,27.18
2022-08-05T22:39:40.595Z,27.97
2022-08-05T22:42:10.116Z,27.65
2022-08-05T22:44:47.047Z,27.98
2022-08-05T22:47:29.386Z,27.46
2022-08-05T22:50:19.664Z,27.56
2022-08-05T22:52:46.126Z,27.23
2022-08-05T22:55:19.124Z,27.90
2022-08-05T22:57:48.995Z,27.67
2022-08-05T23:00:18.240Z,28.06
2022-08-05T23:02:48.459Z,27.31
2022-08-05T23:05:16.095Z,27.30
2022-08-05T23:07:48.680Z,27.58
2022-08-05T23:10:20.318Z,28.07
2022-08-05T23:12:51.345Z,27.83
2022-08-05T23:15:21.912Z,27.63
2022-08-05T23:18:01.233Z,28.15
2022-08-05T23:20:30.658Z,28.04
2022-08-05T23:22:58.460Z,28.18
2022-08-05T23:25:50.870Z,28.08
2022-08-05T23:28:15.909Z,27.85
2022-08-05T23:30:53.116Z,28.32
2022-08-05T23:33:39.314Z,28.35
2022-08-05T23:36:10.054Z,28.30
2022-08-05T23:38:38.184Z,28.08
2022-08-05T23:41:05.740Z,28.14
2022-08-05T23:44:04.982Z,28.59
2022-08-05T23:46:22.143Z,28.89
2022-08-05T23:49:00.534Z,28.38
2022-08-05T23:51:52.690Z,28.64
2022-08-05T23:54:31.762Z,28.76
2022-08-05T23:57:04.093Z,28.58
